Time;durP1;ratioP1;P1;durP2;ratioP2;P2;SDS_P1;SDS_P2;PMS_P1;PMS_P2;Temp;Humidity;BMP_temperature;BMP_pressure;BME280_temperature;BME280_humidity;BME280_pressure;Samples;Min_cycle;Max_cycle;Signal;HPM_P1;HPM_P2
2022/08/18 00:01:15;;;;;;;15.98;14.40;;;20.90;99.90;;;;;;5047096;28;20020;-34
2022/08/18 00:03:41;;;;;;;15.27;13.88;;;20.90;99.90;;;;;;5045878;28;20068;-34
2022/08/18 00:06:08;;;;;;;16.13;14.52;;;20.90;99.90;;;;;;5046785;28;20049;-35
2022/08/18 00:08:33;;;;;;;14.73;13.23;;;20.90;99.90;;;;;;5046521;28;20518;-35
2022/08/18 00:10:59;;;;;;;15.50;13.90;;;21.00;99.90;;;;;;5045525;28;20040;-35
2022/08/18 00:13:25;;;;;;;14.00;12.63;;;21.00;99.90;;;;;;5046460;28;20048;-34
2022/08/18 00:15:51;;;;;;;14.80;12.63;;;20.90;99.90;;;;;;5046157;28;20036;-34
2022/08/18 00:18:17;;;;;;;14.77;13.15;;;20.90;99.90;;;;;;5045882;28;20120;-35
2022/08/18 00:20:43;;;;;;;15.65;14.15;;;20.90;99.90;;;;;;5046317;28;20108;-35
2022/08/18 00:23:08;;;;;;;17.58;15.70;;;20.90;99.90;;;;;;5046516;28;20477;-34
2022/08/18 00:25:34;;;;;;;18.88;16.83;;;20.80;99.90;;;;;;5044936;28;20029;-35
2022/08/18 00:28:00;;;;;;;17.05;15.30;;;20.80;99.90;;;;;;5046548;28;20086;-33
2022/08/18 00:30:26;;;;;;;16.55;14.88;;;20.70;99.90;;;;;;5046193;28;20575;-34
2022/08/18 00:32:56;;;;;;;14.35;12.85;;;20.80;99.90;;;;;;5046052;28;20041;-33
2022/08/18 00:35:33;;;;;;;14.38;13.05;;;20.70;99.90;;;;;;5047142;28;20044;-36
2022/08/18 00:38:01;;;;;;;15.90;14.30;;;20.70;99.90;;;;;;5046300;28;20020;-34
2022/08/18 00:40:31;;;;;;;15.38;13.90;;;20.70;99.90;;;;;;5045657;28;20017;-35
2022/08/18 00:43:03;;;;;;;16.33;13.50;;;20.70;99.90;;;;;;5045955;28;20032;-34
2022/08/18 00:45:35;;;;;;;16.98;15.32;;;20.80;99.90;;;;;;5045531;28;20381;-35
2022/08/18 00:48:01;;;;;;;15.20;13.70;;;20.80;99.90;;;;;;5034806;28;20526;-34
2022/08/18 00:50:45;;;;;;;14.93;13.50;;;20.80;99.90;;;;;;5045585;28;20278;-33
2022/08/18 00:53:20;;;;;;;16.73;15.05;;;20.90;99.90;;;;;;5034220;28;20040;-34
2022/08/18 00:55:47;;;;;;;14.13;12.85;;;20.90;99.90;;;;;;5045253;28;20095;-34
2022/08/18 00:58:21;;;;;;;15.30;13.85;;;20.90;99.90;;;;;;5045740;28;20391;-35
2022/08/18 01:00:49;;;;;;;14.50;13.10;;;20.80;99.90;;;;;;5044862;28;20522;-34
2022/08/18 01:03:17;;;;;;;12.30;10.88;;;20.80;99.90;;;;;;5045512;28;20028;-34
2022/08/18 01:05:50;;;;;;;15.90;14.38;;;20.80;99.90;;;;;;5045920;28;20067;-33
2022/08/18 01:08:16;;;;;;;16.55;14.70;;;20.70;99.90;;;;;;5042302;28;20467;-34
2022/08/18 01:10:43;;;;;;;16.80;15.00;;;20.70;99.90;;;;;;5045808;28;20429;-34
2022/08/18 01:13:09;;;;;;;11.77;10.75;;;20.50;99.90;;;;;;5046173;28;20091;-33
2022/08/18 01:15:35;;;;;;;12.63;11.35;;;20.50;99.90;;;;;;5045545;28;20036;-34
2022/08/18 01:23:50;;;;;;;11.65;10.30;;;20.50;99.90;;;;;;5045366;28;20444;-33
2022/08/18 01:26:18;;;;;;;11.10;10.00;;;20.60;99.90;;;;;;5045626;28;20447;-34
2022/08/18 01:28:45;;;;;;;12.40;11.10;;;20.60;99.90;;;;;;5043851;28;20033;-34
2022/08/18 01:31:27;;;;;;;11.40;10.30;;;20.70;99.90;;;;;;5045151;28;20024;-34
2022/08/18 01:33:53;;;;;;;12.77;11.30;;;20.70;99.90;;;;;;5044846;28;20445;-35
2022/08/18 01:36:20;;;;;;;11.05;9.82;;;20.60;99.90;;;;;;5043797;28;20949;-36
2022/08/18 01:38:49;;;;;;;12.15;10.88;;;20.60;99.90;;;;;;5044029;28;20104;-34
2022/08/18 01:41:20;;;;;;;9.07;8.23;;;20.50;99.90;;;;;;5045759;28;20029;-34
2022/08/18 01:43:47;;;;;;;10.57;9.57;;;20.40;99.90;;;;;;5042361;28;20021;-34
2022/08/18 01:46:18;;;;;;;11.75;10.45;;;20.40;99.90;;;;;;5044651;28;20032;-34
2022/08/18 01:48:45;;;;;;;9.63;8.65;;;20.40;99.90;;;;;;5043823;28;20883;-34
2022/08/18 01:51:12;;;;;;;8.27;7.43;;;20.50;99.90;;;;;;5044935;28;20029;-34
2022/08/18 01:53:38;;;;;;;8.48;7.68;;;20.40;99.90;;;;;;5044947;28;20035;-33
2022/08/18 01:56:04;;;;;;;8.63;7.82;;;20.40;99.90;;;;;;5043957;28;20021;-34
2022/08/18 01:58:32;;;;;;;8.40;7.70;;;20.30;99.90;;;;;;5044257;28;20520;-34
2022/08/18 02:01:00;;;;;;;9.60;8.65;;;20.40;99.90;;;;;;5044793;28;20021;-34
2022/08/18 02:03:35;;;;;;;8.88;7.97;;;20.30;99.90;;;;;;5043394;28;20029;-35
2022/08/18 02:06:04;;;;;;;8.98;8.18;;;20.40;99.90;;;;;;5044497;28;20025;-34
2022/08/18 02:08:32;;;;;;;9.32;8.43;;;20.30;99.90;;;;;;5043958;28;20548;-35
2022/08/18 02:10:58;;;;;;;9.13;8.23;;;20.40;99.90;;;;;;5044278;28;20056;-34
2022/08/18 02:13:24;;;;;;;9.80;8.40;;;20.40;99.90;;;;;;5044472;28;21030;-35
2022/08/18 02:15:50;;;;;;;9.68;8.68;;;20.40;99.90;;;;;;5044381;28;20612;-35
2022/08/18 02:18:18;;;;;;;8.70;7.90;;;20.50;99.90;;;;;;5044239;28;20067;-34
2022/08/18 02:20:44;;;;;;;8.77;7.97;;;20.50;99.90;;;;;;5043818;28;20498;-35
2022/08/18 02:23:10;;;;;;;8.05;7.35;;;20.60;99.90;;;;;;5045052;28;20029;-34
2022/08/18 02:25:36;;;;;;;8.98;8.18;;;20.60;99.90;;;;;;5043395;28;20071;-36
2022/08/18 02:28:03;;;;;;;9.02;8.20;;;20.60;99.90;;;;;;5044196;28;20072;-33
2022/08/18 02:30:29;;;;;;;9.15;8.23;;;20.50;99.90;;;;;;5044025;28;20032;-33
2022/08/18 02:32:57;;;;;;;10.20;8.18;;;20.60;99.90;;;;;;5043448;28;20567;-34
2022/08/18 02:35:23;;;;;;;8.15;7.35;;;20.60;99.90;;;;;;5045201;28;20033;-43
2022/08/18 02:37:49;;;;;;;9.52;8.32;;;20.60;99.90;;;;;;5044387;28;20028;-43
2022/08/18 02:40:16;;;;;;;9.32;8.43;;;20.60;99.90;;;;;;5043946;28;20389;-43
2022/08/18 02:42:43;;;;;;;8.70;7.90;;;20.50;99.90;;;;;;5044123;28;20392;-44
2022/08/18 02:45:09;;;;;;;8.05;7.35;;;20.50;99.90;;;;;;5043493;28;20127;-44
2022/08/18 02:47:35;;;;;;;8.25;7.45;;;20.50;99.90;;;;;;5046274;28;20083;-46
2022/08/18 02:50:00;;;;;;;6.65;5.95;;;20.40;99.90;;;;;;5048797;28;20037;-44
2022/08/18 02:52:31;;;;;;;8.55;7.75;;;20.30;99.90;;;;;;5047689;28;20025;-43
2022/08/18 02:55:00;;;;;;;6.47;5.88;;;20.30;99.90;;;;;;5048348;28;20045;-43
2022/08/18 02:57:26;;;;;;;8.38;7.68;;;20.30;99.90;;;;;;5047960;28;20067;-43
2022/08/18 02:59:52;;;;;;;7.90;7.10;;;20.20;99.90;;;;;;5047401;28;20534;-43
2022/08/18 03:02:17;;;;;;;8.02;7.22;;;20.20;99.90;;;;;;5048472;28;20492;-43
2022/08/18 03:04:43;;;;;;;7.03;6.10;;;20.20;99.90;;;;;;5047852;28;20480;-44
2022/08/18 03:07:08;;;;;;;6.28;5.68;;;20.20;99.90;;;;;;5048272;28;20017;-44
2022/08/18 03:09:35;;;;;;;6.82;6.20;;;20.20;99.90;;;;;;5047677;28;20036;-44
2022/08/18 03:12:01;;;;;;;7.55;6.80;;;20.20;99.90;;;;;;5047332;28;20397;-43
2022/08/18 03:14:27;;;;;;;8.02;6.45;;;20.20;99.90;;;;;;5047211;28;20041;-44
2022/08/18 03:16:53;;;;;;;7.32;6.38;;;20.20;99.90;;;;;;5047647;28;20025;-44
2022/08/18 03:19:19;;;;;;;8.57;6.93;;;20.20;99.90;;;;;;5047814;28;20029;-42
2022/08/18 03:21:46;;;;;;;7.72;6.57;;;20.20;99.90;;;;;;5046133;28;20021;-43
2022/08/18 03:24:12;;;;;;;7.38;6.68;;;20.30;99.90;;;;;;5047698;28;20469;-43
2022/08/18 03:26:44;;;;;;;6.80;6.10;;;20.30;99.90;;;;;;5047160;28;20100;-43
2022/08/18 03:29:10;;;;;;;7.38;6.57;;;20.30;99.90;;;;;;5047064;28;20036;-43
2022/08/18 03:31:37;;;;;;;7.40;6.50;;;20.40;99.90;;;;;;5046966;28;20031;-44
2022/08/18 03:34:04;;;;;;;8.43;7.65;;;20.40;99.90;;;;;;5046901;28;20033;-43
2022/08/18 03:36:32;;;;;;;8.25;7.45;;;20.50;99.90;;;;;;5046222;28;20368;-43
2022/08/18 03:39:00;;;;;;;7.85;7.05;;;20.40;99.90;;;;;;5047141;28;20025;-44
2022/08/18 03:41:27;;;;;;;9.82;7.65;;;20.50;99.90;;;;;;5046554;28;20017;-44
2022/08/18 03:43:52;;;;;;;7.07;6.38;;;20.50;99.90;;;;;;5036738;28;20032;-43
2022/08/18 03:46:20;;;;;;;7.82;7.00;;;20.50;99.90;;;;;;5046942;28;20032;-43
2022/08/18 03:48:48;;;;;;;8.20;7.22;;;20.50;99.90;;;;;;5046216;28;20029;-43
2022/08/18 03:51:17;;;;;;;8.20;7.40;;;20.50;99.90;;;;;;5046843;28;20434;-43
2022/08/18 03:53:43;;;;;;;7.97;7.28;;;20.50;99.90;;;;;;5046630;28;20115;-42
2022/08/18 03:56:14;;;;;;;8.13;6.72;;;20.50;99.90;;;;;;5046544;28;20025;-43
2022/08/18 03:58:46;;;;;;;7.57;6.87;;;20.50;99.90;;;;;;5046228;28;20162;-43
2022/08/18 04:01:16;;;;;;;7.40;6.70;;;20.40;99.90;;;;;;5047158;28;20275;-43
2022/08/18 04:03:50;;;;;;;9.52;7.25;;;20.40;99.90;;;;;;5045960;28;20101;-43
2022/08/18 04:06:17;;;;;;;7.13;6.30;;;20.30;99.90;;;;;;5046879;28;20214;-44
2022/08/18 04:08:43;;;;;;;8.13;6.45;;;20.30;99.90;;;;;;5046089;28;20847;-44
2022/08/18 04:11:13;;;;;;;5.78;5.28;;;20.30;99.90;;;;;;5046578;28;20292;-42
2022/08/18 04:13:38;;;;;;;5.95;5.45;;;20.30;99.90;;;;;;5046002;28;20514;-43
2022/08/18 04:16:04;;;;;;;7.07;6.35;;;20.20;99.90;;;;;;5046417;28;20025;-43
2022/08/18 04:18:30;;;;;;;7.80;7.00;;;20.20;99.90;;;;;;5045811;28;20029;-43
2022/08/18 04:20:57;;;;;;;7.05;6.35;;;20.10;99.90;;;;;;5046286;28;20029;-43
2022/08/18 04:23:23;;;;;;;6.88;6.15;;;20.10;99.90;;;;;;5046369;28;20063;-43
2022/08/18 04:25:57;;;;;;;7.97;6.75;;;20.10;99.90;;;;;;5046445;28;20021;-43
2022/08/18 04:28:23;;;;;;;5.50;4.93;;;20.00;99.90;;;;;;5046684;28;20040;-43
2022/08/18 04:30:49;;;;;;;7.57;6.80;;;20.00;99.90;;;;;;5045681;28;20472;-44
2022/08/18 04:33:14;;;;;;;7.93;6.93;;;20.00;99.90;;;;;;5046220;28;20040;-43
2022/08/18 04:35:40;;;;;;;7.45;6.85;;;20.00;99.90;;;;;;5046097;28;20078;-43
2022/08/18 04:38:06;;;;;;;7.45;6.32;;;20.10;99.90;;;;;;5045947;28;20017;-44
2022/08/18 04:40:33;;;;;;;9.45;7.65;;;20.10;99.90;;;;;;5046117;28;20048;-44
2022/08/18 04:43:00;;;;;;;8.10;7.18;;;20.10;99.90;;;;;;5046054;28;20400;-44
2022/08/18 04:45:26;;;;;;;8.70;6.88;;;20.10;99.90;;;;;;5045321;28;20024;-44
2022/08/18 04:47:52;;;;;;;8.07;7.28;;;20.10;99.90;;;;;;5045745;28;20017;-44
2022/08/18 04:50:18;;;;;;;8.13;7.32;;;20.20;99.90;;;;;;5046212;28;20483;-44
2022/08/18 04:55:28;;;;;;;11.65;9.25;;;20.20;99.90;;;;;;5045634;28;20167;-44
2022/08/18 04:57:59;;;;;;;7.45;6.80;;;20.20;99.90;;;;;;5045587;28;20025;-44
2022/08/18 05:00:25;;;;;;;8.43;7.72;;;20.20;99.90;;;;;;5044998;28;20032;-44
2022/08/18 05:02:53;;;;;;;7.15;6.53;;;20.20;99.90;;;;;;5045837;28;20392;-44
2022/08/18 05:05:18;;;;;;;8.02;7.22;;;20.20;99.90;;;;;;5045464;28;20053;-44
2022/08/18 05:07:45;;;;;;;7.55;6.85;;;20.10;99.90;;;;;;5044706;28;20088;-43
2022/08/18 05:10:12;;;;;;;9.48;6.80;;;20.20;99.90;;;;;;5044335;28;20034;-43
2022/08/18 05:12:41;;;;;;;10.85;9.75;;;20.10;99.90;;;;;;5045019;28;20060;-43
2022/08/18 05:15:08;;;;;;;9.15;8.30;;;20.10;99.90;;;;;;5044675;28;20057;-43
2022/08/18 05:17:38;;;;;;;13.68;10.43;;;20.00;99.90;;;;;;5045037;28;20423;-43
2022/08/18 05:20:07;;;;;;;12.98;10.02;;;20.00;99.90;;;;;;5044584;28;20024;-43
2022/08/18 05:22:42;;;;;;;8.30;7.47;;;20.00;99.90;;;;;;5044990;28;20035;-43
2022/08/18 05:25:09;;;;;;;13.13;10.63;;;20.00;99.90;;;;;;5045213;28;20024;-43
2022/08/18 05:27:37;;;;;;;11.32;10.15;;;20.00;99.90;;;;;;5044136;28;20550;-43
2022/08/18 05:30:05;;;;;;;9.60;8.70;;;19.90;99.90;;;;;;5045226;28;20436;-44
2022/08/18 05:32:38;;;;;;;11.57;9.00;;;19.90;99.90;;;;;;5044888;28;20036;-44
2022/08/18 05:35:10;;;;;;;10.30;9.07;;;19.90;99.90;;;;;;5044096;28;20135;-43
2022/08/18 05:38:07;;;;;;;12.25;10.57;;;19.90;99.90;;;;;;5045363;28;20021;-43
2022/08/18 05:40:34;;;;;;;9.18;7.18;;;19.90;99.90;;;;;;5044325;28;20046;-43
2022/08/18 05:43:01;;;;;;;9.70;7.88;;;19.90;99.90;;;;;;5044329;28;20025;-43
2022/08/18 05:45:27;;;;;;;7.90;7.10;;;19.90;99.90;;;;;;5045061;28;20054;-43
2022/08/18 05:47:58;;;;;;;9.32;8.32;;;19.90;99.90;;;;;;5044641;28;20033;-43
2022/08/18 05:50:25;;;;;;;9.68;8.20;;;19.90;99.90;;;;;;5042627;28;20051;-43
2022/08/18 05:53:10;;;;;;;10.50;8.05;;;19.90;99.90;;;;;;5043667;28;20021;-44
2022/08/18 05:58:40;;;;;;;10.50;7.53;;;20.00;99.90;;;;;;5033365;28;20507;-44
2022/08/18 06:01:29;;;;;;;7.18;6.53;;;20.10;99.90;;;;;;5043291;28;20445;-43
2022/08/18 06:04:04;;;;;;;8.35;6.85;;;20.10;99.90;;;;;;5034725;28;20210;-43
2022/08/18 06:06:31;;;;;;;9.15;6.95;;;20.10;99.90;;;;;;5043783;28;20032;-44
2022/08/18 06:09:22;;;;;;;8.73;6.25;;;20.20;99.90;;;;;;5044701;28;20025;-43
2022/08/18 06:11:49;;;;;;;9.23;8.00;;;20.20;99.90;;;;;;5043199;28;20040;-44
2022/08/18 06:14:15;;;;;;;7.40;6.80;;;20.20;99.90;;;;;;5044083;28;20037;-44
2022/08/18 06:17:10;;;;;;;7.40;6.38;;;20.30;99.90;;;;;;5043245;28;20017;-44
2022/08/18 06:19:38;;;;;;;7.15;6.43;;;20.50;99.90;;;;;;5043885;28;20029;-44
2022/08/18 06:22:15;;;;;;;8.45;6.95;;;20.60;99.90;;;;;;5046393;28;20460;-43
2022/08/18 06:25:14;;;;;;;9.20;7.28;;;20.70;99.90;;;;;;5046688;28;20025;-43
2022/08/18 06:27:54;;;;;;;7.30;6.22;;;20.80;99.90;;;;;;5047765;28;20032;-43
2022/08/18 06:30:43;;;;;;;6.75;6.05;;;20.90;99.90;;;;;;5047159;28;20036;-42
2022/08/18 06:33:40;;;;;;;7.18;6.43;;;20.90;99.90;;;;;;5047913;28;20512;-43
2022/08/18 06:36:47;;;;;;;8.95;7.05;;;21.00;99.90;;;;;;5027599;28;20116;-44
2022/08/18 06:39:33;;;;;;;7.40;6.13;;;21.10;99.90;;;;;;5046459;28;20043;-43
2022/08/18 06:42:00;;;;;;;6.90;6.30;;;21.10;99.90;;;;;;5048441;28;20369;-43
2022/08/18 06:44:37;;;;;;;8.55;7.05;;;21.20;99.90;;;;;;5047067;28;20021;-44
2022/08/18 06:47:27;;;;;;;6.40;5.90;;;21.20;99.90;;;;;;5047804;28;20430;-44
2022/08/18 06:50:04;;;;;;;6.63;6.00;;;21.30;99.90;;;;;;5046405;28;20036;-44
2022/08/18 06:52:32;;;;;;;5.38;4.85;;;21.30;99.90;;;;;;5046544;28;20599;-45
2022/08/18 06:55:12;;;;;;;4.90;4.50;;;21.20;99.90;;;;;;5046483;28;20029;-44
2022/08/18 06:57:53;;;;;;;4.80;4.40;;;21.20;99.90;;;;;;5047525;28;20033;-44
2022/08/18 07:00:18;;;;;;;5.45;4.95;;;21.20;99.90;;;;;;5046964;28;20048;-43
2022/08/18 07:02:51;;;;;;;6.10;5.03;;;21.10;99.90;;;;;;5046938;28;20159;-43
2022/08/18 07:05:26;;;;;;;5.15;4.65;;;21.20;99.90;;;;;;5046358;28;20096;-44
2022/08/18 07:08:13;;;;;;;7.95;5.53;;;21.20;99.90;;;;;;5047541;28;20388;-44
2022/08/18 07:10:47;;;;;;;5.63;5.03;;;21.30;99.90;;;;;;5045946;28;20032;-43
2022/08/18 07:13:22;;;;;;;5.75;5.15;;;21.30;99.90;;;;;;5046213;28;20071;-43
2022/08/18 07:15:48;;;;;;;5.97;4.55;;;21.30;99.90;;;;;;5046968;28;20032;-43
2022/08/18 07:18:20;;;;;;;7.05;5.22;;;21.40;99.90;;;;;;5047782;28;20025;-43
2022/08/18 07:20:52;;;;;;;5.32;4.93;;;21.40;99.90;;;;;;5043386;28;20060;-43
2022/08/18 07:23:37;;;;;;;5.75;4.80;;;21.40;99.90;;;;;;5047801;28;20021;-43
2022/08/18 07:26:15;;;;;;;4.50;4.10;;;21.40;99.90;;;;;;5044905;28;20061;-43
2022/08/18 07:28:50;;;;;;;5.15;3.85;;;21.40;99.90;;;;;;5045878;28;20489;-43
2022/08/18 07:31:23;;;;;;;3.92;3.63;;;21.50;99.90;;;;;;5047161;28;20155;-44
2022/08/18 07:34:16;;;;;;;4.80;4.30;;;21.50;99.90;;;;;;5045444;28;20036;-44
2022/08/18 07:36:48;;;;;;;3.85;3.55;;;21.50;99.90;;;;;;5035728;28;20067;-44
2022/08/18 07:39:41;;;;;;;3.83;3.50;;;21.60;99.90;;;;;;5046680;28;20094;-44
2022/08/18 07:42:10;;;;;;;4.20;3.72;;;21.50;99.90;;;;;;5036033;28;20037;-44
2022/08/18 07:45:04;;;;;;;6.28;3.83;;;21.60;99.90;;;;;;5046778;28;20135;-44
2022/08/18 07:47:51;;;;;;;5.43;4.20;;;21.60;99.90;;;;;;5045954;28;20385;-43
2022/08/18 07:50:17;;;;;;;4.68;4.15;;;21.60;99.90;;;;;;5046795;28;20111;-43
2022/08/18 07:52:47;;;;;;;4.45;3.75;;;21.60;99.90;;;;;;5046933;28;20195;-44
2022/08/18 07:55:28;;;;;;;3.88;3.50;;;21.60;99.90;;;;;;5045951;28;20024;-44
2022/08/18 07:58:23;;;;;;;3.78;3.20;;;21.70;99.90;;;;;;5047016;28;20070;-44
2022/08/18 08:01:04;;;;;;;5.15;4.05;;;21.70;99.90;;;;;;5046176;28;20094;-44
2022/08/18 08:03:40;;;;;;;3.40;3.10;;;21.80;99.90;;;;;;5045365;28;20056;-44
2022/08/18 08:06:40;;;;;;;5.20;3.78;;;21.80;99.90;;;;;;5046390;28;20033;-43
2022/08/18 08:09:28;;;;;;;4.78;3.83;;;21.90;99.90;;;;;;5026532;28;20715;-43
2022/08/18 08:12:02;;;;;;;4.47;3.85;;;22.00;99.90;;;;;;5044416;28;20053;-44
2022/08/18 08:14:46;;;;;;;4.00;3.70;;;22.00;99.90;;;;;;5045879;28;20048;-45
2022/08/18 08:17:12;;;;;;;3.95;3.60;;;22.10;99.90;;;;;;5046232;28;20021;-44
2022/08/18 08:19:48;;;;;;;4.38;3.97;;;22.30;99.90;;;;;;5046630;28;20458;-44
2022/08/18 08:22:42;;;;;;;5.65;4.30;;;22.40;99.90;;;;;;5047034;28;20488;-44
2022/08/18 08:25:48;;;;;;;5.38;3.90;;;22.50;99.90;;;;;;5046658;28;20354;-44
2022/08/18 08:28:38;;;;;;;4.40;4.00;;;22.60;99.90;;;;;;5047107;28;20021;-45
2022/08/18 08:31:10;;;;;;;4.40;4.00;;;22.70;99.90;;;;;;5045697;28;20490;-44
2022/08/18 08:34:15;;;;;;;5.57;3.97;;;22.80;99.90;;;;;;5035970;28;20033;-44
2022/08/18 08:36:44;;;;;;;4.45;4.05;;;22.80;99.90;;;;;;5043362;28;20032;-44
2022/08/18 08:39:17;;;;;;;4.53;3.88;;;22.90;99.90;;;;;;5046036;28;20179;-43
2022/08/18 08:41:55;;;;;;;4.45;4.05;;;22.90;99.90;;;;;;5045806;28;20529;-43
2022/08/18 08:45:00;;;;;;;4.88;3.67;;;23.00;99.90;;;;;;5044852;28;20029;-43
2022/08/18 08:47:32;;;;;;;4.13;3.72;;;23.10;99.90;;;;;;5045102;28;20467;-44
2022/08/18 08:50:22;;;;;;;4.97;3.45;;;23.00;99.90;;;;;;5045442;28;20025;-43
2022/08/18 08:53:01;;;;;;;3.00;2.75;;;23.00;99.90;;;;;;5043988;28;20045;-44
2022/08/18 08:55:31;;;;;;;3.50;3.20;;;23.00;99.90;;;;;;5046199;28;20029;-43
2022/08/18 08:58:20;;;;;;;3.45;3.15;;;23.00;99.90;;;;;;5045161;28;20119;-43
2022/08/18 09:00:47;;;;;;;3.38;2.80;;;23.10;99.90;;;;;;5025850;28;20044;-43
2022/08/18 09:03:18;;;;;;;2.97;2.75;;;23.00;99.90;;;;;;5039902;28;20498;-44
2022/08/18 09:05:55;;;;;;;4.60;3.25;;;23.10;99.90;;;;;;5044613;28;20439;-44
2022/08/18 09:08:48;;;;;;;3.13;2.90;;;23.10;99.90;;;;;;5045814;28;20167;-43
2022/08/18 09:11:14;;;;;;;3.03;2.83;;;23.10;99.90;;;;;;5027166;28;20072;-44
2022/08/18 09:14:16;;;;;;;3.38;3.08;;;23.20;99.90;;;;;;5039603;28;20139;-44
2022/08/18 09:17:23;;;;;;;4.38;3.97;;;23.20;99.90;;;;;;5025469;28;20148;-43
2022/08/18 09:20:23;;;;;;;4.13;2.92;;;23.40;99.90;;;;;;5042166;28;20388;-44
2022/08/18 09:23:07;;;;;;;4.93;3.20;;;23.50;99.90;;;;;;5044874;28;20021;-44
2022/08/18 09:25:40;;;;;;;2.70;2.50;;;23.50;99.90;;;;;;5036500;28;20060;-44
2022/08/18 09:28:22;;;;;;;5.13;3.05;;;23.60;99.90;;;;;;5044622;28;20028;-44
2022/08/18 09:31:04;;;;;;;3.17;2.80;;;23.60;99.90;;;;;;5044925;28;20043;-43
2022/08/18 09:33:47;;;;;;;2.92;2.63;;;23.60;99.90;;;;;;5044484;28;20118;-43
2022/08/18 09:36:16;;;;;;;4.55;3.00;;;23.60;99.90;;;;;;5045685;28;20025;-44
2022/08/18 09:41:46;;;;;;;3.40;3.00;;;23.70;99.90;;;;;;5044831;28;20032;-44
2022/08/18 09:44:14;;;;;;;4.32;3.15;;;23.80;99.90;;;;;;5044818;28;20035;-44
2022/08/18 09:46:42;;;;;;;3.17;2.88;;;23.90;99.90;;;;;;5044752;28;20035;-43
2022/08/18 09:49:26;;;;;;;3.05;2.80;;;24.00;99.90;;;;;;5044330;28;20032;-44
2022/08/18 09:52:21;;;;;;;3.60;2.65;;;24.10;99.90;;;;;;5044398;28;20049;-45
2022/08/18 09:54:58;;;;;;;2.75;2.55;;;24.20;99.90;;;;;;5043584;28;20291;-44
2022/08/18 09:57:32;;;;;;;3.63;2.50;;;24.20;99.90;;;;;;5044995;28;20501;-44
2022/08/18 10:00:18;;;;;;;2.42;2.20;;;24.20;99.90;;;;;;5044875;28;20047;-44
2022/08/18 10:02:46;;;;;;;2.90;2.70;;;24.20;99.90;;;;;;5044296;28;20025;-44
2022/08/18 10:05:18;;;;;;;2.92;2.72;;;24.10;99.90;;;;;;5044600;28;20053;-44
2022/08/18 10:07:53;;;;;;;2.95;2.72;;;24.10;99.90;;;;;;5044676;28;20472;-44
2022/08/18 10:10:43;;;;;;;2.75;2.47;;;24.10;99.90;;;;;;5044522;28;20029;-44
2022/08/18 10:13:24;;;;;;;2.97;2.40;;;24.20;99.90;;;;;;5044898;28;20437;-44
2022/08/18 10:15:58;;;;;;;2.55;2.35;;;24.30;99.90;;;;;;5043683;28;20024;-45
2022/08/18 10:18:48;;;;;;;2.63;2.40;;;24.40;99.90;;;;;;5025591;28;20029;-45
2022/08/18 10:21:17;;;;;;;2.72;2.53;;;24.50;99.90;;;;;;5042614;28;20025;-44
2022/08/18 10:24:01;;;;;;;2.72;2.42;;;24.50;99.90;;;;;;5043669;28;20507;-44
2022/08/18 10:26:30;;;;;;;2.60;2.40;;;24.50;99.90;;;;;;5044420;28;20388;-43
2022/08/18 10:29:02;;;;;;;2.72;2.45;;;24.50;99.90;;;;;;5044770;28;20032;-43
2022/08/18 10:31:30;;;;;;;2.78;2.42;;;24.50;99.90;;;;;;5043348;28;20527;-44
2022/08/18 10:34:06;;;;;;;2.60;2.10;;;24.50;99.90;;;;;;5044790;28;20033;-44
2022/08/18 10:37:03;;;;;;;3.65;2.78;;;24.50;99.90;;;;;;5043384;28;20066;-44
2022/08/18 10:39:37;;;;;;;2.60;2.40;;;24.60;99.90;;;;;;5025288;28;20128;-43
2022/08/18 10:42:10;;;;;;;2.65;2.45;;;24.70;99.70;;;;;;5043091;28;20036;-44
2022/08/18 10:44:42;;;;;;;2.50;2.30;;;24.80;99.50;;;;;;5043772;28;20052;-45
2022/08/18 10:47:19;;;;;;;4.22;2.80;;;24.90;99.40;;;;;;5044475;28;20408;-44
2022/08/18 10:49:49;;;;;;;4.38;2.90;;;25.10;99.30;;;;;;5044382;28;20029;-45
2022/08/18 10:52:39;;;;;;;2.60;2.40;;;25.10;99.10;;;;;;5043539;28;20025;-45
2022/08/18 10:55:21;;;;;;;2.22;2.10;;;25.20;99.10;;;;;;5044634;28;20052;-43
2022/08/18 10:58:08;;;;;;;2.15;2.05;;;25.10;99.20;;;;;;5042179;28;20025;-44
2022/08/18 11:00:48;;;;;;;2.50;2.30;;;25.00;99.10;;;;;;5044602;28;20021;-44
2022/08/18 11:04:02;;;;;;;2.70;2.50;;;25.00;99.20;;;;;;5042210;28;20477;-45
2022/08/18 11:06:35;;;;;;;2.97;2.63;;;24.90;99.20;;;;;;5030410;28;20052;-44
2022/08/18 11:09:00;;;;;;;2.97;2.75;;;24.80;99.30;;;;;;5047558;28;20064;-44
2022/08/18 11:11:36;;;;;;;2.85;2.58;;;24.90;99.30;;;;;;5047013;28;20048;-44
2022/08/18 11:14:36;;;;;;;2.60;2.40;;;24.90;99.20;;;;;;5037778;28;20040;-44
2022/08/18 11:17:25;;;;;;;2.78;2.35;;;24.90;99.10;;;;;;5038614;28;20032;-44
2022/08/18 11:19:52;;;;;;;4.60;2.30;;;25.00;98.90;;;;;;5046749;28;20028;-43
2022/08/18 11:22:23;;;;;;;3.10;2.60;;;25.10;98.80;;;;;;5047580;28;20079;-43
2022/08/18 11:24:50;;;;;;;2.60;2.40;;;25.20;98.60;;;;;;5047311;28;20035;-44
2022/08/18 11:27:20;;;;;;;2.80;2.60;;;25.30;98.60;;;;;;5047336;28;20480;-44
2022/08/18 11:29:45;;;;;;;3.15;2.70;;;25.30;98.40;;;;;;5046942;28;20033;-43
2022/08/18 11:32:28;;;;;;;2.58;2.38;;;25.30;98.30;;;;;;5047815;28;20495;-43
2022/08/18 11:34:57;;;;;;;2.58;2.38;;;25.40;98.20;;;;;;5047402;28;20388;-44
2022/08/18 11:37:52;;;;;;;2.75;2.50;;;25.40;98.20;;;;;;5047753;28;20051;-44
2022/08/18 11:40:23;;;;;;;2.55;2.30;;;25.40;98.20;;;;;;5047094;28;20060;-44
2022/08/18 11:43:05;;;;;;;3.03;2.70;;;25.40;98.10;;;;;;5046560;28;20029;-44
2022/08/18 11:45:51;;;;;;;3.03;2.80;;;25.50;98.10;;;;;;5047418;28;20033;-44
2022/08/18 11:48:25;;;;;;;3.22;2.92;;;25.50;98.10;;;;;;5047142;28;20017;-44
2022/08/18 11:50:54;;;;;;;2.80;2.60;;;25.50;98.10;;;;;;5047250;28;20163;-43
2022/08/18 11:53:31;;;;;;;3.30;3.00;;;25.50;98.10;;;;;;5046768;28;20112;-44
2022/08/18 11:56:19;;;;;;;2.95;2.75;;;25.50;98.10;;;;;;5046642;28;20029;-44
2022/08/18 11:58:48;;;;;;;3.60;3.10;;;25.40;98.00;;;;;;5047137;28;20433;-45
2022/08/18 12:01:31;;;;;;;3.25;2.80;;;25.30;98.10;;;;;;5046598;28;20028;-44
2022/08/18 12:04:07;;;;;;;3.05;2.85;;;25.20;98.10;;;;;;5046891;28;20053;-44
2022/08/18 12:06:34;;;;;;;3.47;2.85;;;25.20;98.20;;;;;;5046991;28;20021;-44
2022/08/18 12:09:19;;;;;;;3.63;3.10;;;25.20;98.30;;;;;;5046728;28;20322;-44
2022/08/18 12:12:00;;;;;;;4.03;2.88;;;25.10;98.30;;;;;;5046716;28;20029;-45
2022/08/18 12:14:30;;;;;;;3.00;2.80;;;25.00;98.40;;;;;;5046379;28;20037;-44
2022/08/18 12:16:56;;;;;;;3.38;3.08;;;25.00;98.40;;;;;;5045629;28;20155;-44
2022/08/18 12:19:23;;;;;;;3.35;3.05;;;25.10;98.50;;;;;;5046497;28;20059;-44
2022/08/18 12:21:58;;;;;;;3.22;3.00;;;25.10;98.40;;;;;;5045880;28;20018;-44
2022/08/18 12:24:25;;;;;;;4.50;2.92;;;25.20;98.40;;;;;;5046804;28;20112;-44
2022/08/18 12:26:52;;;;;;;2.92;2.50;;;25.20;98.40;;;;;;5047407;28;20028;-44
2022/08/18 12:29:19;;;;;;;3.30;3.00;;;25.30;98.30;;;;;;5046025;28;20051;-44
2022/08/18 12:31:46;;;;;;;3.33;3.00;;;25.30;98.30;;;;;;5045951;28;20583;-45
2022/08/18 12:34:12;;;;;;;3.38;2.58;;;25.30;98.20;;;;;;5046328;28;20874;-45
2022/08/18 12:36:38;;;;;;;3.97;2.90;;;25.30;98.20;;;;;;5045229;28;20127;-44
2022/08/18 12:39:04;;;;;;;3.75;3.30;;;25.30;98.20;;;;;;5046357;28;20029;-45
2022/08/18 12:41:30;;;;;;;3.60;3.22;;;25.30;98.10;;;;;;5045948;28;20650;-43
2022/08/18 12:43:56;;;;;;;2.80;2.60;;;25.30;98.10;;;;;;5045166;28;20044;-44
2022/08/18 12:46:22;;;;;;;3.53;2.90;;;25.30;98.20;;;;;;5046769;28;20025;-45
2022/08/18 12:48:49;;;;;;;3.30;3.00;;;25.30;98.20;;;;;;5045912;28;20143;-44
2022/08/18 12:51:14;;;;;;;3.17;2.90;;;25.20;98.10;;;;;;5045552;28;20103;-44
2022/08/18 12:53:40;;;;;;;3.33;2.95;;;25.20;98.10;;;;;;5046176;28;20123;-43
2022/08/18 12:56:15;;;;;;;4.03;3.10;;;25.20;98.10;;;;;;5045366;28;20028;-44
2022/08/18 12:58:41;;;;;;;2.90;2.70;;;25.20;98.00;;;;;;5045910;28;20631;-44
2022/08/18 13:01:06;;;;;;;3.35;3.05;;;25.10;98.00;;;;;;5045418;28;20120;-44
2022/08/18 13:03:32;;;;;;;3.25;2.97;;;25.10;98.00;;;;;;5045184;28;20035;-44
2022/08/18 13:05:58;;;;;;;3.58;3.08;;;25.10;98.00;;;;;;5045018;28;20457;-45
2022/08/18 13:08:24;;;;;;;3.25;2.80;;;25.00;98.00;;;;;;5045467;28;20033;-43
2022/08/18 13:10:49;;;;;;;3.40;3.10;;;25.00;98.00;;;;;;5045373;28;20362;-44
2022/08/18 13:13:17;;;;;;;3.40;2.78;;;25.00;98.00;;;;;;5044827;28;20040;-44
2022/08/18 13:15:43;;;;;;;3.10;2.80;;;25.00;98.00;;;;;;5044818;28;20082;-44
2022/08/18 13:18:08;;;;;;;3.28;2.80;;;25.00;98.00;;;;;;5045001;28;20021;-45
2022/08/18 13:20:35;;;;;;;3.25;3.03;;;24.90;98.00;;;;;;5044605;28;20067;-44
2022/08/18 13:23:01;;;;;;;2.67;2.47;;;24.90;98.00;;;;;;5045367;28;20029;-44
2022/08/18 13:25:26;;;;;;;3.42;2.60;;;24.90;98.00;;;;;;5044525;28;20036;-44
2022/08/18 13:27:54;;;;;;;3.53;3.05;;;24.90;98.00;;;;;;5045068;28;20074;-44